sensor_id;sensor_type;location;lat;lon;timestamp;P1;durP1;ratioP1;P2;durP2;ratioP2
12689;SDS011;6409;56.294;14.480;2023-04-07T00:02:13;0.80;;;0.80;;
12689;SDS011;6409;56.294;14.480;2023-04-07T00:04:40;2.27;;;1.20;;
12689;SDS011;6409;56.294;14.480;2023-04-07T00:07:07;1.57;;;1.00;;
12689;SDS011;6409;56.294;14.480;2023-04-07T00:09:34;1.53;;;0.63;;
12689;SDS011;6409;56.294;14.480;2023-04-07T00:12:03;0.70;;;0.70;;
12689;SDS011;6409;56.294;14.480;2023-04-07T00:14:30;0.60;;;0.60;;
12689;SDS011;6409;56.294;14.480;2023-04-07T00:16:57;0.73;;;0.73;;
12689;SDS011;6409;56.294;14.480;2023-04-07T00:19:24;3.17;;;0.63;;
12689;SDS011;6409;56.294;14.480;2023-04-07T00:21:51;0.90;;;0.70;;
12689;SDS011;6409;56.294;14.480;2023-04-07T00:24:18;2.97;;;1.03;;
12689;SDS011;6409;56.294;14.480;2023-04-07T00:26:45;7.13;;;1.30;;
12689;SDS011;6409;56.294;14.480;2023-04-07T00:29:13;3.13;;;1.27;;
12689;SDS011;6409;56.294;14.480;2023-04-07T00:31:40;1.10;;;0.93;;
12689;SDS011;6409;56.294;14.480;2023-04-07T00:34:07;0.70;;;0.70;;
12689;SDS011;6409;56.294;14.480;2023-04-07T00:36:34;0.90;;;0.80;;
12689;SDS011;6409;56.294;14.480;2023-04-07T00:39:01;0.80;;;0.80;;
12689;SDS011;6409;56.294;14.480;2023-04-07T00:41:29;1.13;;;0.93;;
12689;SDS011;6409;56.294;14.480;2023-04-07T00:43:56;0.67;;;0.60;;
12689;SDS011;6409;56.294;14.480;2023-04-07T00:46:24;1.70;;;0.90;;
12689;SDS011;6409;56.294;14.480;2023-04-07T00:48:51;0.90;;;0.87;;
12689;SDS011;6409;56.294;14.480;2023-04-07T00:51:18;1.50;;;1.23;;
12689;SDS011;6409;56.294;14.480;2023-04-07T00:53:46;0.93;;;0.93;;
12689;SDS011;6409;56.294;14.480;2023-04-07T00:56:13;3.03;;;1.27;;
12689;SDS011;6409;56.294;14.480;2023-04-07T00:58:43;4.30;;;1.70;;
12689;SDS011;6409;56.294;14.480;2023-04-07T01:01:12;0.73;;;0.73;;
12689;SDS011;6409;56.294;14.480;2023-04-07T01:03:45;1.17;;;1.07;;
12689;SDS011;6409;56.294;14.480;2023-04-07T01:06:18;0.70;;;0.70;;
12689;SDS011;6409;56.294;14.480;2023-04-07T01:08:48;0.60;;;0.60;;
12689;SDS011;6409;56.294;14.480;2023-04-07T01:11:22;1.03;;;1.00;;
12689;SDS011;6409;56.294;14.480;2023-04-07T01:13:51;0.60;;;0.60;;
12689;SDS011;6409;56.294;14.480;2023-04-07T01:16:20;0.60;;;0.60;;
12689;SDS011;6409;56.294;14.480;2023-04-07T01:18:52;0.80;;;0.80;;
12689;SDS011;6409;56.294;14.480;2023-04-07T01:21:21;1.10;;;0.80;;
12689;SDS011;6409;56.294;14.480;2023-04-07T01:24:00;0.80;;;0.80;;
12689;SDS011;6409;56.294;14.480;2023-04-07T01:26:40;0.60;;;0.60;;
12689;SDS011;6409;56.294;14.480;2023-04-07T01:31:55;1.50;;;0.83;;
12689;SDS011;6409;56.294;14.480;2023-04-07T01:34:24;0.90;;;0.90;;
12689;SDS011;6409;56.294;14.480;2023-04-07T01:36:53;1.63;;;1.20;;
12689;SDS011;6409;56.294;14.480;2023-04-07T01:39:20;1.13;;;0.80;;
12689;SDS011;6409;56.294;14.480;2023-04-07T01:41:48;0.63;;;0.63;;
12689;SDS011;6409;56.294;14.480;2023-04-07T01:44:17;0.70;;;0.70;;
12689;SDS011;6409;56.294;14.480;2023-04-07T01:46:46;1.30;;;1.17;;
12689;SDS011;6409;56.294;14.480;2023-04-07T01:49:15;0.60;;;0.60;;
12689;SDS011;6409;56.294;14.480;2023-04-07T01:51:42;1.27;;;0.93;;
12689;SDS011;6409;56.294;14.480;2023-04-07T01:54:14;0.60;;;0.60;;
12689;SDS011;6409;56.294;14.480;2023-04-07T01:56:41;1.93;;;0.87;;
12689;SDS011;6409;56.294;14.480;2023-04-07T01:59:09;1.63;;;0.80;;
12689;SDS011;6409;56.294;14.480;2023-04-07T02:01:36;1.00;;;0.80;;
12689;SDS011;6409;56.294;14.480;2023-04-07T02:04:05;0.87;;;0.83;;
12689;SDS011;6409;56.294;14.480;2023-04-07T02:06:38;0.53;;;0.53;;
12689;SDS011;6409;56.294;14.480;2023-04-07T02:09:09;0.87;;;0.87;;
12689;SDS011;6409;56.294;14.480;2023-04-07T02:11:37;3.43;;;0.77;;
12689;SDS011;6409;56.294;14.480;2023-04-07T02:14:05;1.20;;;0.80;;
12689;SDS011;6409;56.294;14.480;2023-04-07T02:16:33;1.10;;;1.10;;
12689;SDS011;6409;56.294;14.480;2023-04-07T02:19:00;0.83;;;0.83;;
12689;SDS011;6409;56.294;14.480;2023-04-07T02:21:30;0.93;;;0.90;;
12689;SDS011;6409;56.294;14.480;2023-04-07T02:23:59;1.20;;;0.80;;
12689;SDS011;6409;56.294;14.480;2023-04-07T02:26:26;0.73;;;0.70;;
12689;SDS011;6409;56.294;14.480;2023-04-07T02:28:54;1.70;;;1.00;;
12689;SDS011;6409;56.294;14.480;2023-04-07T02:31:21;0.87;;;0.87;;
12689;SDS011;6409;56.294;14.480;2023-04-07T02:33:48;0.90;;;0.87;;
12689;SDS011;6409;56.294;14.480;2023-04-07T02:36:15;0.90;;;0.90;;
12689;SDS011;6409;56.294;14.480;2023-04-07T02:38:43;1.07;;;0.97;;
12689;SDS011;6409;56.294;14.480;2023-04-07T02:41:10;0.77;;;0.77;;
12689;SDS011;6409;56.294;14.480;2023-04-07T02:43:37;1.10;;;1.00;;
12689;SDS011;6409;56.294;14.480;2023-04-07T02:46:05;0.90;;;0.90;;
12689;SDS011;6409;56.294;14.480;2023-04-07T02:48:32;1.50;;;1.10;;
12689;SDS011;6409;56.294;14.480;2023-04-07T02:50:59;1.20;;;1.10;;
12689;SDS011;6409;56.294;14.480;2023-04-07T02:53:25;6.90;;;0.80;;
12689;SDS011;6409;56.294;14.480;2023-04-07T02:55:54;1.07;;;0.97;;
12689;SDS011;6409;56.294;14.480;2023-04-07T02:58:21;0.60;;;0.60;;
12689;SDS011;6409;56.294;14.480;2023-04-07T03:00:48;0.87;;;0.87;;
12689;SDS011;6409;56.294;14.480;2023-04-07T03:03:15;1.53;;;0.87;;
12689;SDS011;6409;56.294;14.480;2023-04-07T03:05:42;0.80;;;0.80;;
12689;SDS011;6409;56.294;14.480;2023-04-07T03:08:09;0.90;;;0.90;;
12689;SDS011;6409;56.294;14.480;2023-04-07T03:10:36;0.80;;;0.80;;
12689;SDS011;6409;56.294;14.480;2023-04-07T03:13:04;0.93;;;0.90;;
12689;SDS011;6409;56.294;14.480;2023-04-07T03:15:32;4.90;;;1.23;;
12689;SDS011;6409;56.294;14.480;2023-04-07T03:17:59;1.00;;;1.00;;
12689;SDS011;6409;56.294;14.480;2023-04-07T03:20:26;1.00;;;1.00;;
12689;SDS011;6409;56.294;14.480;2023-04-07T03:22:53;2.47;;;1.87;;
12689;SDS011;6409;56.294;14.480;2023-04-07T03:25:20;2.50;;;1.70;;
12689;SDS011;6409;56.294;14.480;2023-04-07T03:27:47;1.00;;;0.93;;
12689;SDS011;6409;56.294;14.480;2023-04-07T03:30:15;0.57;;;0.57;;
12689;SDS011;6409;56.294;14.480;2023-04-07T03:32:42;0.97;;;0.97;;
12689;SDS011;6409;56.294;14.480;2023-04-07T03:35:10;0.73;;;0.73;;
12689;SDS011;6409;56.294;14.480;2023-04-07T03:37:37;1.93;;;1.33;;
12689;SDS011;6409;56.294;14.480;2023-04-07T03:40:04;1.17;;;1.07;;
12689;SDS011;6409;56.294;14.480;2023-04-07T03:42:31;1.13;;;1.07;;
12689;SDS011;6409;56.294;14.480;2023-04-07T03:44:58;0.80;;;0.80;;
12689;SDS011;6409;56.294;14.480;2023-04-07T03:47:27;0.70;;;0.70;;
12689;SDS011;6409;56.294;14.480;2023-04-07T03:49:54;0.83;;;0.83;;
12689;SDS011;6409;56.294;14.480;2023-04-07T03:52:21;0.90;;;0.90;;
12689;SDS011;6409;56.294;14.480;2023-04-07T03:54:48;1.40;;;0.90;;
12689;SDS011;6409;56.294;14.480;2023-04-07T03:57:15;1.17;;;1.00;;
12689;SDS011;6409;56.294;14.480;2023-04-07T03:59:42;1.30;;;1.20;;
12689;SDS011;6409;56.294;14.480;2023-04-07T04:02:10;0.80;;;0.80;;
12689;SDS011;6409;56.294;14.480;2023-04-07T04:04:38;1.07;;;0.70;;
12689;SDS011;6409;56.294;14.480;2023-04-07T04:07:05;0.60;;;0.60;;
12689;SDS011;6409;56.294;14.480;2023-04-07T04:09:32;1.30;;;1.20;;
12689;SDS011;6409;56.294;14.480;2023-04-07T04:11:59;0.70;;;0.70;;
12689;SDS011;6409;56.294;14.480;2023-04-07T04:14:26;0.80;;;0.80;;
12689;SDS011;6409;56.294;14.480;2023-04-07T04:16:53;0.83;;;0.77;;
12689;SDS011;6409;56.294;14.480;2023-04-07T04:19:21;0.60;;;0.60;;
12689;SDS011;6409;56.294;14.480;2023-04-07T04:21:49;0.80;;;0.80;;
12689;SDS011;6409;56.294;14.480;2023-04-07T04:24:16;0.73;;;0.70;;
12689;SDS011;6409;56.294;14.480;2023-04-07T04:26:43;5.83;;;1.23;;
12689;SDS011;6409;56.294;14.480;2023-04-07T04:29:10;2.17;;;1.60;;
12689;SDS011;6409;56.294;14.480;2023-04-07T04:31:37;1.20;;;1.10;;
12689;SDS011;6409;56.294;14.480;2023-04-07T04:34:04;0.87;;;0.87;;
12689;SDS011;6409;56.294;14.480;2023-04-07T04:36:31;0.80;;;0.80;;
12689;SDS011;6409;56.294;14.480;2023-04-07T04:38:59;0.73;;;0.73;;
12689;SDS011;6409;56.294;14.480;2023-04-07T04:41:26;1.00;;;0.90;;
12689;SDS011;6409;56.294;14.480;2023-04-07T04:43:53;1.43;;;1.17;;
12689;SDS011;6409;56.294;14.480;2023-04-07T04:46:20;0.80;;;0.73;;
12689;SDS011;6409;56.294;14.480;2023-04-07T04:48:47;2.10;;;1.50;;
12689;SDS011;6409;56.294;14.480;2023-04-07T04:51:15;2.40;;;1.20;;
12689;SDS011;6409;56.294;14.480;2023-04-07T04:53:42;0.40;;;0.40;;
12689;SDS011;6409;56.294;14.480;2023-04-07T04:56:10;1.87;;;0.97;;
12689;SDS011;6409;56.294;14.480;2023-04-07T04:58:38;0.90;;;0.90;;
12689;SDS011;6409;56.294;14.480;2023-04-07T05:01:06;1.73;;;0.80;;
12689;SDS011;6409;56.294;14.480;2023-04-07T05:03:33;0.93;;;0.93;;
12689;SDS011;6409;56.294;14.480;2023-04-07T05:06:00;1.10;;;1.00;;
12689;SDS011;6409;56.294;14.480;2023-04-07T05:08:27;0.57;;;0.57;;
12689;SDS011;6409;56.294;14.480;2023-04-07T05:10:54;0.90;;;0.90;;
12689;SDS011;6409;56.294;14.480;2023-04-07T05:13:23;0.70;;;0.70;;
12689;SDS011;6409;56.294;14.480;2023-04-07T05:15:50;0.60;;;0.60;;
12689;SDS011;6409;56.294;14.480;2023-04-07T05:18:18;0.93;;;0.90;;
12689;SDS011;6409;56.294;14.480;2023-04-07T05:20:47;0.67;;;0.67;;
12689;SDS011;6409;56.294;14.480;2023-04-07T05:23:14;0.90;;;0.80;;
12689;SDS011;6409;56.294;14.480;2023-04-07T05:25:41;3.53;;;1.33;;
12689;SDS011;6409;56.294;14.480;2023-04-07T05:28:08;0.80;;;0.60;;
12689;SDS011;6409;56.294;14.480;2023-04-07T05:30:36;2.03;;;0.90;;
12689;SDS011;6409;56.294;14.480;2023-04-07T05:33:03;0.90;;;0.77;;
12689;SDS011;6409;56.294;14.480;2023-04-07T05:35:30;0.73;;;0.73;;
12689;SDS011;6409;56.294;14.480;2023-04-07T05:37:57;0.90;;;0.90;;
12689;SDS011;6409;56.294;14.480;2023-04-07T05:40:24;0.80;;;0.80;;
12689;SDS011;6409;56.294;14.480;2023-04-07T05:42:51;0.83;;;0.80;;
12689;SDS011;6409;56.294;14.480;2023-04-07T05:45:18;0.80;;;0.80;;
12689;SDS011;6409;56.294;14.480;2023-04-07T05:47:47;2.03;;;1.60;;
12689;SDS011;6409;56.294;14.480;2023-04-07T05:50:14;1.70;;;0.67;;
12689;SDS011;6409;56.294;14.480;2023-04-07T05:52:41;1.37;;;1.17;;
12689;SDS011;6409;56.294;14.480;2023-04-07T05:55:08;0.70;;;0.70;;
12689;SDS011;6409;56.294;14.480;2023-04-07T05:57:36;0.77;;;0.77;;
12689;SDS011;6409;56.294;14.480;2023-04-07T06:00:03;0.67;;;0.67;;
12689;SDS011;6409;56.294;14.480;2023-04-07T06:02:30;0.80;;;0.80;;
12689;SDS011;6409;56.294;14.480;2023-04-07T06:04:58;1.00;;;1.00;;
12689;SDS011;6409;56.294;14.480;2023-04-07T06:07:25;0.70;;;0.70;;
12689;SDS011;6409;56.294;14.480;2023-04-07T06:09:52;0.77;;;0.77;;
12689;SDS011;6409;56.294;14.480;2023-04-07T06:12:20;22.53;;;1.23;;
12689;SDS011;6409;56.294;14.480;2023-04-07T06:14:52;0.70;;;0.70;;
12689;SDS011;6409;56.294;14.480;2023-04-07T06:17:20;0.90;;;0.90;;
12689;SDS011;6409;56.294;14.480;2023-04-07T06:19:47;1.90;;;0.90;;
12689;SDS011;6409;56.294;14.480;2023-04-07T06:22:15;1.03;;;1.03;;
12689;SDS011;6409;56.294;14.480;2023-04-07T06:24:42;0.80;;;0.80;;
12689;SDS011;6409;56.294;14.480;2023-04-07T06:27:09;1.20;;;1.00;;
12689;SDS011;6409;56.294;14.480;2023-04-07T06:29:36;0.60;;;0.60;;
12689;SDS011;6409;56.294;14.480;2023-04-07T06:32:03;0.77;;;0.73;;
12689;SDS011;6409;56.294;14.480;2023-04-07T06:34:31;0.80;;;0.80;;
12689;SDS011;6409;56.294;14.480;2023-04-07T06:36:58;0.73;;;0.70;;
12689;SDS011;6409;56.294;14.480;2023-04-07T06:39:27;0.73;;;0.73;;
12689;SDS011;6409;56.294;14.480;2023-04-07T06:41:55;0.60;;;0.60;;
12689;SDS011;6409;56.294;14.480;2023-04-07T06:44:22;0.83;;;0.83;;
12689;SDS011;6409;56.294;14.480;2023-04-07T06:46:49;1.37;;;1.10;;
12689;SDS011;6409;56.294;14.480;2023-04-07T06:49:19;1.17;;;0.93;;
12689;SDS011;6409;56.294;14.480;2023-04-07T06:51:46;0.80;;;0.80;;
12689;SDS011;6409;56.294;14.480;2023-04-07T06:54:13;0.97;;;0.87;;
12689;SDS011;6409;56.294;14.480;2023-04-07T06:56:42;1.10;;;1.00;;
12689;SDS011;6409;56.294;14.480;2023-04-07T06:59:09;0.97;;;0.80;;
12689;SDS011;6409;56.294;14.480;2023-04-07T07:01:36;0.87;;;0.80;;
12689;SDS011;6409;56.294;14.480;2023-04-07T07:04:03;4.10;;;0.83;;
12689;SDS011;6409;56.294;14.480;2023-04-07T07:06:31;1.33;;;1.13;;
12689;SDS011;6409;56.294;14.480;2023-04-07T07:08:58;0.90;;;0.90;;
12689;SDS011;6409;56.294;14.480;2023-04-07T07:11:25;1.47;;;1.30;;
12689;SDS011;6409;56.294;14.480;2023-04-07T07:13:53;0.70;;;0.70;;
12689;SDS011;6409;56.294;14.480;2023-04-07T07:16:20;0.80;;;0.80;;
12689;SDS011;6409;56.294;14.480;2023-04-07T07:18:49;0.90;;;0.90;;
12689;SDS011;6409;56.294;14.480;2023-04-07T07:21:16;1.23;;;1.17;;
12689;SDS011;6409;56.294;14.480;2023-04-07T07:23:43;3.07;;;1.00;;
12689;SDS011;6409;56.294;14.480;2023-04-07T07:26:10;1.20;;;1.10;;
12689;SDS011;6409;56.294;14.480;2023-04-07T07:28:38;1.20;;;1.10;;
12689;SDS011;6409;56.294;14.480;2023-04-07T07:31:10;0.90;;;0.90;;
12689;SDS011;6409;56.294;14.480;2023-04-07T07:33:39;0.80;;;0.80;;
12689;SDS011;6409;56.294;14.480;2023-04-07T07:36:08;1.40;;;1.30;;
12689;SDS011;6409;56.294;14.480;2023-04-07T07:38:35;0.80;;;0.80;;
12689;SDS011;6409;56.294;14.480;2023-04-07T07:41:02;0.90;;;0.90;;
12689;SDS011;6409;56.294;14.480;2023-04-07T07:43:29;0.90;;;0.90;;
12689;SDS011;6409;56.294;14.480;2023-04-07T07:45:56;0.80;;;0.80;;
12689;SDS011;6409;56.294;14.480;2023-04-07T07:48:24;1.13;;;0.80;;
12689;SDS011;6409;56.294;14.480;2023-04-07T07:50:51;0.90;;;0.90;;
12689;SDS011;6409;56.294;14.480;2023-04-07T07:53:20;0.90;;;0.90;;
12689;SDS011;6409;56.294;14.480;2023-04-07T07:55:48;0.90;;;0.90;;
12689;SDS011;6409;56.294;14.480;2023-04-07T07:58:15;1.23;;;1.13;;
12689;SDS011;6409;56.294;14.480;2023-04-07T08:00:42;0.77;;;0.77;;
12689;SDS011;6409;56.294;14.480;2023-04-07T08:03:09;1.30;;;1.20;;
12689;SDS011;6409;56.294;14.480;2023-04-07T08:05:40;1.33;;;1.23;;
12689;SDS011;6409;56.294;14.480;2023-04-07T08:08:08;0.97;;;0.97;;
12689;SDS011;6409;56.294;14.480;2023-04-07T08:10:35;1.17;;;1.10;;
12689;SDS011;6409;56.294;14.480;2023-04-07T08:13:02;1.30;;;1.20;;
12689;SDS011;6409;56.294;14.480;2023-04-07T08:15:29;1.23;;;1.10;;
12689;SDS011;6409;56.294;14.480;2023-04-07T08:17:56;1.20;;;1.10;;
12689;SDS011;6409;56.294;14.480;2023-04-07T08:20:24;1.10;;;1.10;;
12689;SDS011;6409;56.294;14.480;2023-04-07T08:22:52;1.17;;;1.13;;
12689;SDS011;6409;56.294;14.480;2023-04-07T08:25:19;1.17;;;1.17;;
12689;SDS011;6409;56.294;14.480;2023-04-07T08:27:46;2.10;;;1.10;;
12689;SDS011;6409;56.294;14.480;2023-04-07T08:30:13;1.00;;;1.00;;
12689;SDS011;6409;56.294;14.480;2023-04-07T08:32:41;1.10;;;1.10;;
12689;SDS011;6409;56.294;14.480;2023-04-07T08:35:09;1.10;;;1.10;;
12689;SDS011;6409;56.294;14.480;2023-04-07T08:37:37;1.00;;;1.00;;
12689;SDS011;6409;56.294;14.480;2023-04-07T08:40:06;1.10;;;1.10;;
12689;SDS011;6409;56.294;14.480;2023-04-07T08:42:34;1.07;;;1.07;;
12689;SDS011;6409;56.294;14.480;2023-04-07T08:45:07;1.33;;;1.20;;
12689;SDS011;6409;56.294;14.480;2023-04-07T08:47:35;1.60;;;1.50;;
12689;SDS011;6409;56.294;14.480;2023-04-07T08:50:03;1.20;;;1.20;;
12689;SDS011;6409;56.294;14.480;2023-04-07T08:52:32;1.37;;;1.27;;
12689;SDS011;6409;56.294;14.480;2023-04-07T08:55:00;1.47;;;1.37;;
12689;SDS011;6409;56.294;14.480;2023-04-07T08:57:32;1.37;;;1.13;;
12689;SDS011;6409;56.294;14.480;2023-04-07T09:00:00;1.20;;;1.20;;
12689;SDS011;6409;56.294;14.480;2023-04-07T09:02:30;1.10;;;1.10;;
12689;SDS011;6409;56.294;14.480;2023-04-07T09:04:58;1.40;;;1.30;;
12689;SDS011;6409;56.294;14.480;2023-04-07T09:07:26;1.20;;;1.20;;
12689;SDS011;6409;56.294;14.480;2023-04-07T09:09:54;1.20;;;1.20;;
12689;SDS011;6409;56.294;14.480;2023-04-07T09:12:21;1.40;;;1.30;;
12689;SDS011;6409;56.294;14.480;2023-04-07T09:14:49;1.37;;;1.30;;
12689;SDS011;6409;56.294;14.480;2023-04-07T09:17:17;1.17;;;1.17;;
12689;SDS011;6409;56.294;14.480;2023-04-07T09:19:44;1.10;;;1.10;;
12689;SDS011;6409;56.294;14.480;2023-04-07T09:22:12;1.00;;;1.00;;
12689;SDS011;6409;56.294;14.480;2023-04-07T09:24:40;1.10;;;1.10;;
12689;SDS011;6409;56.294;14.480;2023-04-07T09:27:08;1.03;;;1.03;;
12689;SDS011;6409;56.294;14.480;2023-04-07T09:29:36;1.20;;;1.20;;
12689;SDS011;6409;56.294;14.480;2023-04-07T09:32:04;1.20;;;1.20;;
12689;SDS011;6409;56.294;14.480;2023-04-07T09:34:32;1.40;;;1.10;;
12689;SDS011;6409;56.294;14.480;2023-04-07T09:37:00;1.20;;;1.20;;
12689;SDS011;6409;56.294;14.480;2023-04-07T09:39:27;1.40;;;1.30;;
12689;SDS011;6409;56.294;14.480;2023-04-07T09:41:55;1.10;;;1.10;;
12689;SDS011;6409;56.294;14.480;2023-04-07T09:44:23;1.10;;;1.10;;
12689;SDS011;6409;56.294;14.480;2023-04-07T09:46:51;1.13;;;1.13;;
12689;SDS011;6409;56.294;14.480;2023-04-07T09:49:20;1.27;;;1.20;;
12689;SDS011;6409;56.294;14.480;2023-04-07T09:51:51;1.10;;;1.10;;
12689;SDS011;6409;56.294;14.480;2023-04-07T09:54:30;1.00;;;1.00;;
12689;SDS011;6409;56.294;14.480;2023-04-07T09:56:59;1.30;;;1.20;;
12689;SDS011;6409;56.294;14.480;2023-04-07T09:59:27;1.37;;;1.30;;
12689;SDS011;6409;56.294;14.480;2023-04-07T10:01:54;1.37;;;1.27;;
12689;SDS011;6409;56.294;14.480;2023-04-07T10:04:23;1.10;;;1.10;;
12689;SDS011;6409;56.294;14.480;2023-04-07T10:06:51;1.10;;;1.10;;
12689;SDS011;6409;56.294;14.480;2023-04-07T10:09:18;1.30;;;1.20;;
12689;SDS011;6409;56.294;14.480;2023-04-07T10:11:46;1.17;;;1.17;;
12689;SDS011;6409;56.294;14.480;2023-04-07T10:14:12;1.30;;;1.27;;
12689;SDS011;6409;56.294;14.480;2023-04-07T10:16:41;1.10;;;1.10;;
12689;SDS011;6409;56.294;14.480;2023-04-07T10:19:08;1.17;;;1.17;;
12689;SDS011;6409;56.294;14.480;2023-04-07T10:21:37;1.50;;;1.40;;
12689;SDS011;6409;56.294;14.480;2023-04-07T10:24:08;1.27;;;1.17;;
12689;SDS011;6409;56.294;14.480;2023-04-07T10:26:44;1.00;;;1.00;;
12689;SDS011;6409;56.294;14.480;2023-04-07T10:29:12;1.07;;;1.07;;
12689;SDS011;6409;56.294;14.480;2023-04-07T10:31:40;1.00;;;1.00;;
12689;SDS011;6409;56.294;14.480;2023-04-07T10:34:08;1.10;;;1.10;;
12689;SDS011;6409;56.294;14.480;2023-04-07T10:36:36;1.00;;;1.00;;
12689;SDS011;6409;56.294;14.480;2023-04-07T10:39:37;1.00;;;1.00;;
12689;SDS011;6409;56.294;14.480;2023-04-07T10:42:04;1.17;;;1.17;;
12689;SDS011;6409;56.294;14.480;2023-04-07T10:44:44;1.10;;;1.10;;
12689;SDS011;6409;56.294;14.480;2023-04-07T10:47:13;1.10;;;1.10;;
12689;SDS011;6409;56.294;14.480;2023-04-07T10:52:43;1.20;;;1.20;;
12689;SDS011;6409;56.294;14.480;2023-04-07T10:55:29;1.00;;;1.00;;
12689;SDS011;6409;56.294;14.480;2023-04-07T10:58:14;1.00;;;1.00;;
12689;SDS011;6409;56.294;14.480;2023-04-07T11:00:42;1.10;;;1.10;;
12689;SDS011;6409;56.294;14.480;2023-04-07T11:03:09;1.30;;;1.20;;
12689;SDS011;6409;56.294;14.480;2023-04-07T11:05:38;1.20;;;1.20;;
12689;SDS011;6409;56.294;14.480;2023-04-07T11:08:06;1.13;;;1.13;;
12689;SDS011;6409;56.294;14.480;2023-04-07T11:10:33;1.30;;;1.30;;
12689;SDS011;6409;56.294;14.480;2023-04-07T11:13:01;1.20;;;1.20;;
12689;SDS011;6409;56.294;14.480;2023-04-07T11:15:30;0.97;;;0.97;;
12689;SDS011;6409;56.294;14.480;2023-04-07T11:18:14;1.10;;;1.10;;
12689;SDS011;6409;56.294;14.480;2023-04-07T11:20:43;1.50;;;1.40;;
12689;SDS011;6409;56.294;14.480;2023-04-07T11:23:12;1.37;;;1.30;;
12689;SDS011;6409;56.294;14.480;2023-04-07T11:25:41;1.30;;;1.20;;
12689;SDS011;6409;56.294;14.480;2023-04-07T11:28:09;1.07;;;1.07;;
12689;SDS011;6409;56.294;14.480;2023-04-07T11:30:37;1.37;;;1.27;;
12689;SDS011;6409;56.294;14.480;2023-04-07T11:33:09;1.17;;;1.17;;
12689;SDS011;6409;56.294;14.480;2023-04-07T11:35:45;1.30;;;1.20;;
12689;SDS011;6409;56.294;14.480;2023-04-07T11:38:24;1.10;;;1.10;;
12689;SDS011;6409;56.294;14.480;2023-04-07T11:40:51;1.23;;;1.23;;
12689;SDS011;6409;56.294;14.480;2023-04-07T11:43:19;1.47;;;1.37;;
12689;SDS011;6409;56.294;14.480;2023-04-07T11:46:02;1.33;;;1.30;;
12689;SDS011;6409;56.294;14.480;2023-04-07T11:48:31;1.03;;;1.03;;
12689;SDS011;6409;56.294;14.480;2023-04-07T11:50:58;3.17;;;1.20;;
12689;SDS011;6409;56.294;14.480;2023-04-07T11:53:29;1.40;;;1.33;;
12689;SDS011;6409;56.294;14.480;2023-04-07T11:56:02;1.67;;;1.57;;
12689;SDS011;6409;56.294;14.480;2023-04-07T11:58:30;1.50;;;1.40;;
12689;SDS011;6409;56.294;14.480;2023-04-07T12:00:58;1.20;;;1.20;;
12689;SDS011;6409;56.294;14.480;2023-04-07T12:03:29;1.53;;;1.40;;
12689;SDS011;6409;56.294;14.480;2023-04-07T12:05:56;1.43;;;1.37;;
12689;SDS011;6409;56.294;14.480;2023-04-07T12:08:36;1.37;;;1.30;;
12689;SDS011;6409;56.294;14.480;2023-04-07T12:11:07;1.40;;;1.40;;
12689;SDS011;6409;56.294;14.480;2023-04-07T12:13:34;1.50;;;1.40;;
12689;SDS011;6409;56.294;14.480;2023-04-07T12:16:02;1.40;;;1.30;;
12689;SDS011;6409;56.294;14.480;2023-04-07T12:18:29;1.60;;;1.50;;
12689;SDS011;6409;56.294;14.480;2023-04-07T12:20:57;1.40;;;1.33;;
12689;SDS011;6409;56.294;14.480;2023-04-07T12:23:24;1.50;;;1.40;;
12689;SDS011;6409;56.294;14.480;2023-04-07T12:25:52;1.57;;;1.47;;
12689;SDS011;6409;56.294;14.480;2023-04-07T12:28:19;1.47;;;1.30;;
12689;SDS011;6409;56.294;14.480;2023-04-07T12:30:46;1.53;;;1.20;;
12689;SDS011;6409;56.294;14.480;2023-04-07T12:33:14;1.40;;;1.30;;
12689;SDS011;6409;56.294;14.480;2023-04-07T12:35:41;1.40;;;1.30;;
12689;SDS011;6409;56.294;14.480;2023-04-07T12:38:08;1.40;;;1.30;;
12689;SDS011;6409;56.294;14.480;2023-04-07T12:40:35;1.53;;;1.43;;
12689;SDS011;6409;56.294;14.480;2023-04-07T12:43:04;3.17;;;1.77;;
12689;SDS011;6409;56.294;14.480;2023-04-07T12:45:32;1.40;;;1.30;;
12689;SDS011;6409;56.294;14.480;2023-04-07T12:47:59;1.60;;;1.50;;
12689;SDS011;6409;56.294;14.480;2023-04-07T12:50:26;1.40;;;1.33;;
12689;SDS011;6409;56.294;14.480;2023-04-07T12:52:54;1.40;;;1.30;;
12689;SDS011;6409;56.294;14.480;2023-04-07T12:55:23;1.60;;;1.50;;
12689;SDS011;6409;56.294;14.480;2023-04-07T12:57:50;1.40;;;1.30;;
12689;SDS011;6409;56.294;14.480;2023-04-07T13:00:18;1.80;;;1.70;;
12689;SDS011;6409;56.294;14.480;2023-04-07T13:02:45;1.60;;;1.50;;
12689;SDS011;6409;56.294;14.480;2023-04-07T13:05:12;1.73;;;1.63;;
12689;SDS011;6409;56.294;14.480;2023-04-07T13:07:39;1.50;;;1.40;;
12689;SDS011;6409;56.294;14.480;2023-04-07T13:10:07;1.70;;;1.60;;
12689;SDS011;6409;56.294;14.480;2023-04-07T13:12:35;1.63;;;1.40;;
12689;SDS011;6409;56.294;14.480;2023-04-07T13:15:04;5.33;;;1.60;;
12689;SDS011;6409;56.294;14.480;2023-04-07T13:17:33;1.70;;;1.60;;
12689;SDS011;6409;56.294;14.480;2023-04-07T13:20:02;1.60;;;1.50;;
12689;SDS011;6409;56.294;14.480;2023-04-07T13:30:08;1.97;;;1.80;;
12689;SDS011;6409;56.294;14.480;2023-04-07T13:32:37;1.77;;;1.67;;
12689;SDS011;6409;56.294;14.480;2023-04-07T13:35:05;1.77;;;1.67;;
12689;SDS011;6409;56.294;14.480;2023-04-07T13:37:32;1.87;;;1.60;;
12689;SDS011;6409;56.294;14.480;2023-04-07T13:39:59;1.80;;;1.70;;
12689;SDS011;6409;56.294;14.480;2023-04-07T13:42:26;1.87;;;1.60;;
12689;SDS011;6409;56.294;14.480;2023-04-07T13:44:53;1.87;;;1.60;;
12689;SDS011;6409;56.294;14.480;2023-04-07T13:47:20;1.57;;;1.53;;
12689;SDS011;6409;56.294;14.480;2023-04-07T13:49:48;1.40;;;1.40;;
12689;SDS011;6409;56.294;14.480;2023-04-07T13:52:16;1.43;;;1.43;;
12689;SDS011;6409;56.294;14.480;2023-04-07T13:54:43;1.80;;;1.67;;
12689;SDS011;6409;56.294;14.480;2023-04-07T13:57:10;1.80;;;1.70;;
12689;SDS011;6409;56.294;14.480;2023-04-07T13:59:38;1.53;;;1.53;;
12689;SDS011;6409;56.294;14.480;2023-04-07T14:02:05;2.10;;;1.90;;
12689;SDS011;6409;56.294;14.480;2023-04-07T14:04:32;1.80;;;1.70;;
12689;SDS011;6409;56.294;14.480;2023-04-07T14:07:01;2.30;;;1.80;;
12689;SDS011;6409;56.294;14.480;2023-04-07T14:09:27;1.73;;;1.63;;
12689;SDS011;6409;56.294;14.480;2023-04-07T14:11:54;2.40;;;1.80;;
12689;SDS011;6409;56.294;14.480;2023-04-07T14:14:22;2.53;;;1.73;;
12689;SDS011;6409;56.294;14.480;2023-04-07T14:16:49;1.63;;;1.53;;
12689;SDS011;6409;56.294;14.480;2023-04-07T14:19:17;1.60;;;1.50;;
12689;SDS011;6409;56.294;14.480;2023-04-07T14:21:45;1.40;;;1.40;;
12689;SDS011;6409;56.294;14.480;2023-04-07T14:24:13;1.80;;;1.70;;
12689;SDS011;6409;56.294;14.480;2023-04-07T14:26:41;1.73;;;1.63;;
12689;SDS011;6409;56.294;14.480;2023-04-07T14:29:08;1.90;;;1.70;;
12689;SDS011;6409;56.294;14.480;2023-04-07T14:31:36;1.90;;;1.80;;
12689;SDS011;6409;56.294;14.480;2023-04-07T14:34:03;1.80;;;1.70;;
12689;SDS011;6409;56.294;14.480;2023-04-07T14:36:30;2.07;;;1.70;;
12689;SDS011;6409;56.294;14.480;2023-04-07T14:38:57;1.60;;;1.50;;
12689;SDS011;6409;56.294;14.480;2023-04-07T14:41:26;2.00;;;1.90;;
12689;SDS011;6409;56.294;14.480;2023-04-07T14:43:53;2.17;;;2.00;;
12689;SDS011;6409;56.294;14.480;2023-04-07T14:46:21;2.20;;;2.00;;
12689;SDS011;6409;56.294;14.480;2023-04-07T14:48:48;2.10;;;1.90;;
12689;SDS011;6409;56.294;14.480;2023-04-07T14:51:15;2.20;;;2.00;;
12689;SDS011;6409;56.294;14.480;2023-04-07T14:53:43;1.93;;;1.80;;
12689;SDS011;6409;56.294;14.480;2023-04-07T14:56:10;2.10;;;1.90;;
12689;SDS011;6409;56.294;14.480;2023-04-07T14:58:38;2.70;;;2.00;;
12689;SDS011;6409;56.294;14.480;2023-04-07T15:01:05;3.37;;;2.27;;
12689;SDS011;6409;56.294;14.480;2023-04-07T15:03:33;2.10;;;1.90;;
12689;SDS011;6409;56.294;14.480;2023-04-07T15:06:00;2.23;;;2.00;;
12689;SDS011;6409;56.294;14.480;2023-04-07T15:08:27;1.90;;;1.80;;